sensor_id;sensor_type;location;lat;lon;timestamp;temperature;humidity
70807;DHT22;58882;52.170;5.386;2022-10-22T00:00:08;18.60;65.00
70807;DHT22;58882;52.170;5.386;2022-10-22T00:02:35;18.60;65.10
70807;DHT22;58882;52.170;5.386;2022-10-22T00:05:03;18.70;65.00
70807;DHT22;58882;52.170;5.386;2022-10-22T00:07:30;18.60;64.90
70807;DHT22;58882;52.170;5.386;2022-10-22T00:09:57;18.70;64.90
70807;DHT22;58882;52.170;5.386;2022-10-22T00:12:24;18.70;64.90
70807;DHT22;58882;52.170;5.386;2022-10-22T00:14:51;18.70;64.90
70807;DHT22;58882;52.170;5.386;2022-10-22T00:17:18;18.70;64.90
70807;DHT22;58882;52.170;5.386;2022-10-22T00:19:45;18.70;64.90
70807;DHT22;58882;52.170;5.386;2022-10-22T00:22:12;18.70;65.00
70807;DHT22;58882;52.170;5.386;2022-10-22T00:24:39;18.70;65.10
70807;DHT22;58882;52.170;5.386;2022-10-22T00:27:07;18.60;65.00
70807;DHT22;58882;52.170;5.386;2022-10-22T00:29:35;18.70;65.00
70807;DHT22;58882;52.170;5.386;2022-10-22T00:32:02;18.60;64.90
70807;DHT22;58882;52.170;5.386;2022-10-22T00:34:29;18.70;65.90
70807;DHT22;58882;52.170;5.386;2022-10-22T00:36:55;18.60;64.90
70807;DHT22;58882;52.170;5.386;2022-10-22T00:39:24;18.60;64.90
70807;DHT22;58882;52.170;5.386;2022-10-22T00:41:53;18.70;65.10
70807;DHT22;58882;52.170;5.386;2022-10-22T00:47:27;18.60;65.00
70807;DHT22;58882;52.170;5.386;2022-10-22T00:49:55;18.60;65.00
70807;DHT22;58882;52.170;5.386;2022-10-22T00:52:23;18.60;65.00
70807;DHT22;58882;52.170;5.386;2022-10-22T00:54:50;18.60;64.90
70807;DHT22;58882;52.170;5.386;2022-10-22T00:57:17;18.60;64.80
70807;DHT22;58882;52.170;5.386;2022-10-22T00:59:45;18.60;64.70
70807;DHT22;58882;52.170;5.386;2022-10-22T01:02:12;18.60;64.80
70807;DHT22;58882;52.170;5.386;2022-10-22T01:04:40;18.60;64.90
70807;DHT22;58882;52.170;5.386;2022-10-22T01:07:16;18.60;65.00
70807;DHT22;58882;52.170;5.386;2022-10-22T01:12:33;18.50;65.20
70807;DHT22;58882;52.170;5.386;2022-10-22T01:17:58;18.50;65.20
70807;DHT22;58882;52.170;5.386;2022-10-22T01:31:37;18.60;65.30
70807;DHT22;58882;52.170;5.386;2022-10-22T01:34:06;18.60;65.30
70807;DHT22;58882;52.170;5.386;2022-10-22T01:36:34;18.50;65.30
70807;DHT22;58882;52.170;5.386;2022-10-22T01:39:02;18.50;65.30
70807;DHT22;58882;52.170;5.386;2022-10-22T01:41:30;18.50;65.20
70807;DHT22;58882;52.170;5.386;2022-10-22T01:43:57;18.50;65.20
70807;DHT22;58882;52.170;5.386;2022-10-22T01:46:26;18.50;65.30
70807;DHT22;58882;52.170;5.386;2022-10-22T01:49:16;18.50;65.40
70807;DHT22;58882;52.170;5.386;2022-10-22T01:51:52;18.40;65.50
70807;DHT22;58882;52.170;5.386;2022-10-22T01:54:50;18.40;65.60
70807;DHT22;58882;52.170;5.386;2022-10-22T01:57:28;18.40;65.60
70807;DHT22;58882;52.170;5.386;2022-10-22T02:00:07;18.40;65.60
70807;DHT22;58882;52.170;5.386;2022-10-22T02:07:53;18.40;65.50
70807;DHT22;58882;52.170;5.386;2022-10-22T02:10:21;18.50;65.60
70807;DHT22;58882;52.170;5.386;2022-10-22T02:12:51;18.50;65.60
70807;DHT22;58882;52.170;5.386;2022-10-22T02:15:20;18.50;65.50
70807;DHT22;58882;52.170;5.386;2022-10-22T02:17:47;18.50;65.60
70807;DHT22;58882;52.170;5.386;2022-10-22T02:20:22;18.50;65.40
70807;DHT22;58882;52.170;5.386;2022-10-22T02:22:49;18.50;65.40
70807;DHT22;58882;52.170;5.386;2022-10-22T02:25:16;18.40;65.40
70807;DHT22;58882;52.170;5.386;2022-10-22T02:27:44;18.40;65.50
70807;DHT22;58882;52.170;5.386;2022-10-22T02:30:15;18.40;65.50
70807;DHT22;58882;52.170;5.386;2022-10-22T02:35:30;18.40;66.60
70807;DHT22;58882;52.170;5.386;2022-10-22T02:37:58;18.40;65.60
70807;DHT22;58882;52.170;5.386;2022-10-22T02:40:25;18.40;65.50
70807;DHT22;58882;52.170;5.386;2022-10-22T02:42:53;18.40;65.60
70807;DHT22;58882;52.170;5.386;2022-10-22T02:45:20;18.40;65.60
70807;DHT22;58882;52.170;5.386;2022-10-22T02:47:47;18.40;65.60
70807;DHT22;58882;52.170;5.386;2022-10-22T02:50:14;18.40;65.60
70807;DHT22;58882;52.170;5.386;2022-10-22T02:52:41;18.40;65.60
70807;DHT22;58882;52.170;5.386;2022-10-22T02:55:08;18.40;65.60
70807;DHT22;58882;52.170;5.386;2022-10-22T02:57:35;18.30;65.50
70807;DHT22;58882;52.170;5.386;2022-10-22T03:00:04;18.30;65.50
70807;DHT22;58882;52.170;5.386;2022-10-22T03:02:31;18.30;65.50
70807;DHT22;58882;52.170;5.386;2022-10-22T03:04:58;18.30;65.60
70807;DHT22;58882;52.170;5.386;2022-10-22T03:07:24;18.30;65.60
70807;DHT22;58882;52.170;5.386;2022-10-22T03:09:51;18.30;65.60
70807;DHT22;58882;52.170;5.386;2022-10-22T03:12:18;18.20;66.50
70807;DHT22;58882;52.170;5.386;2022-10-22T03:14:45;18.20;65.60
70807;DHT22;58882;52.170;5.386;2022-10-22T03:17:12;18.20;65.70
70807;DHT22;58882;52.170;5.386;2022-10-22T03:19:38;18.20;65.80
70807;DHT22;58882;52.170;5.386;2022-10-22T03:22:11;18.20;65.80
70807;DHT22;58882;52.170;5.386;2022-10-22T03:24:41;18.10;65.80
70807;DHT22;58882;52.170;5.386;2022-10-22T03:27:12;18.10;65.90
70807;DHT22;58882;52.170;5.386;2022-10-22T03:29:40;18.10;66.00
70807;DHT22;58882;52.170;5.386;2022-10-22T03:32:07;18.10;66.00
70807;DHT22;58882;52.170;5.386;2022-10-22T03:34:34;18.10;66.00
70807;DHT22;58882;52.170;5.386;2022-10-22T03:37:01;18.10;66.00
70807;DHT22;58882;52.170;5.386;2022-10-22T03:39:30;18.10;66.00
70807;DHT22;58882;52.170;5.386;2022-10-22T03:41:57;18.00;66.00
70807;DHT22;58882;52.170;5.386;2022-10-22T03:44:25;18.00;66.00
70807;DHT22;58882;52.170;5.386;2022-10-22T03:46:52;18.00;66.10
70807;DHT22;58882;52.170;5.386;2022-10-22T03:49:20;18.00;66.10
70807;DHT22;58882;52.170;5.386;2022-10-22T03:51:47;18.00;66.00
70807;DHT22;58882;52.170;5.386;2022-10-22T03:54:15;18.00;67.00
70807;DHT22;58882;52.170;5.386;2022-10-22T03:56:42;18.00;66.10
70807;DHT22;58882;52.170;5.386;2022-10-22T03:59:08;17.90;66.20
70807;DHT22;58882;52.170;5.386;2022-10-22T04:01:35;17.90;66.30
70807;DHT22;58882;52.170;5.386;2022-10-22T04:04:02;17.90;66.30
70807;DHT22;58882;52.170;5.386;2022-10-22T04:06:29;17.90;66.20
70807;DHT22;58882;52.170;5.386;2022-10-22T04:08:56;17.90;66.30
70807;DHT22;58882;52.170;5.386;2022-10-22T04:11:24;17.90;66.30
70807;DHT22;58882;52.170;5.386;2022-10-22T04:13:51;17.90;67.30
70807;DHT22;58882;52.170;5.386;2022-10-22T04:16:20;17.90;66.40
70807;DHT22;58882;52.170;5.386;2022-10-22T04:18:49;17.90;66.50
70807;DHT22;58882;52.170;5.386;2022-10-22T04:21:18;17.90;66.50
70807;DHT22;58882;52.170;5.386;2022-10-22T04:23:50;17.90;66.50
70807;DHT22;58882;52.170;5.386;2022-10-22T04:26:18;17.80;66.40
70807;DHT22;58882;52.170;5.386;2022-10-22T04:28:47;17.90;66.50
70807;DHT22;58882;52.170;5.386;2022-10-22T04:31:19;17.80;66.40
70807;DHT22;58882;52.170;5.386;2022-10-22T04:33:50;17.90;66.50
70807;DHT22;58882;52.170;5.386;2022-10-22T04:36:17;17.90;66.40
70807;DHT22;58882;52.170;5.386;2022-10-22T04:38:45;17.80;66.40
70807;DHT22;58882;52.170;5.386;2022-10-22T04:41:18;17.80;66.40
70807;DHT22;58882;52.170;5.386;2022-10-22T04:43:45;17.80;66.40
70807;DHT22;58882;52.170;5.386;2022-10-22T04:46:14;17.80;66.40
70807;DHT22;58882;52.170;5.386;2022-10-22T04:48:42;17.80;66.50
70807;DHT22;58882;52.170;5.386;2022-10-22T04:51:12;17.80;66.50
70807;DHT22;58882;52.170;5.386;2022-10-22T04:53:41;17.80;66.50
70807;DHT22;58882;52.170;5.386;2022-10-22T04:56:19;17.70;66.60
70807;DHT22;58882;52.170;5.386;2022-10-22T04:58:54;17.70;66.60
70807;DHT22;58882;52.170;5.386;2022-10-22T05:01:24;17.70;66.70
70807;DHT22;58882;52.170;5.386;2022-10-22T05:03:54;17.70;66.70
70807;DHT22;58882;52.170;5.386;2022-10-22T05:06:22;17.70;66.80
70807;DHT22;58882;52.170;5.386;2022-10-22T05:08:55;17.70;66.80
70807;DHT22;58882;52.170;5.386;2022-10-22T05:11:24;17.70;66.80
70807;DHT22;58882;52.170;5.386;2022-10-22T05:13:58;17.70;66.80
70807;DHT22;58882;52.170;5.386;2022-10-22T05:16:25;17.60;66.90
70807;DHT22;58882;52.170;5.386;2022-10-22T05:18:53;17.60;66.90
70807;DHT22;58882;52.170;5.386;2022-10-22T05:21:20;17.60;66.90
70807;DHT22;58882;52.170;5.386;2022-10-22T05:23:49;17.60;66.90
70807;DHT22;58882;52.170;5.386;2022-10-22T05:26:18;17.60;66.90
70807;DHT22;58882;52.170;5.386;2022-10-22T05:28:47;17.60;66.90
70807;DHT22;58882;52.170;5.386;2022-10-22T05:31:15;17.60;66.90
70807;DHT22;58882;52.170;5.386;2022-10-22T05:33:43;17.60;67.10
70807;DHT22;58882;52.170;5.386;2022-10-22T05:36:19;17.60;67.10
70807;DHT22;58882;52.170;5.386;2022-10-22T05:38:47;17.60;67.10
70807;DHT22;58882;52.170;5.386;2022-10-22T05:41:21;17.60;67.00
70807;DHT22;58882;52.170;5.386;2022-10-22T05:43:49;17.50;67.00
70807;DHT22;58882;52.170;5.386;2022-10-22T05:46:19;17.60;67.00
70807;DHT22;58882;52.170;5.386;2022-10-22T05:48:56;17.60;67.00
70807;DHT22;58882;52.170;5.386;2022-10-22T05:51:26;17.60;67.00
70807;DHT22;58882;52.170;5.386;2022-10-22T05:53:55;17.60;67.00
70807;DHT22;58882;52.170;5.386;2022-10-22T05:56:23;17.60;67.00
70807;DHT22;58882;52.170;5.386;2022-10-22T05:58:50;17.60;67.10
70807;DHT22;58882;52.170;5.386;2022-10-22T06:01:25;17.60;67.90
70807;DHT22;58882;52.170;5.386;2022-10-22T06:03:54;17.60;67.00
70807;DHT22;58882;52.170;5.386;2022-10-22T06:08:53;17.70;66.80
70807;DHT22;58882;52.170;5.386;2022-10-22T06:11:22;17.70;66.80
70807;DHT22;58882;52.170;5.386;2022-10-22T06:13:49;17.70;66.80
70807;DHT22;58882;52.170;5.386;2022-10-22T06:16:16;17.70;66.70
70807;DHT22;58882;52.170;5.386;2022-10-22T06:18:43;17.70;66.70
70807;DHT22;58882;52.170;5.386;2022-10-22T06:21:12;17.70;67.50
70807;DHT22;58882;52.170;5.386;2022-10-22T06:23:43;17.70;66.60
70807;DHT22;58882;52.170;5.386;2022-10-22T06:26:10;17.70;66.60
70807;DHT22;58882;52.170;5.386;2022-10-22T06:28:37;17.70;66.40
70807;DHT22;58882;52.170;5.386;2022-10-22T06:31:04;17.80;66.50
70807;DHT22;58882;52.170;5.386;2022-10-22T06:33:32;17.80;66.40
70807;DHT22;58882;52.170;5.386;2022-10-22T06:38:36;17.80;66.30
70807;DHT22;58882;52.170;5.386;2022-10-22T06:41:04;17.80;66.20
70807;DHT22;58882;52.170;5.386;2022-10-22T06:43:31;17.80;66.20
70807;DHT22;58882;52.170;5.386;2022-10-22T06:46:02;17.80;66.20
70807;DHT22;58882;52.170;5.386;2022-10-22T06:48:29;17.80;66.10
70807;DHT22;58882;52.170;5.386;2022-10-22T06:51:04;17.80;66.00
70807;DHT22;58882;52.170;5.386;2022-10-22T06:53:32;17.80;66.00
70807;DHT22;58882;52.170;5.386;2022-10-22T06:56:03;17.80;66.00
70807;DHT22;58882;52.170;5.386;2022-10-22T06:58:29;17.80;66.00
70807;DHT22;58882;52.170;5.386;2022-10-22T07:01:05;17.80;66.90
70807;DHT22;58882;52.170;5.386;2022-10-22T07:03:32;17.80;66.00
70807;DHT22;58882;52.170;5.386;2022-10-22T07:06:01;17.80;66.00
70807;DHT22;58882;52.170;5.386;2022-10-22T07:08:28;17.80;66.00
70807;DHT22;58882;52.170;5.386;2022-10-22T07:10:55;17.80;65.90
70807;DHT22;58882;52.170;5.386;2022-10-22T07:13:23;17.80;65.90
70807;DHT22;58882;52.170;5.386;2022-10-22T07:15:54;17.80;65.90
70807;DHT22;58882;52.170;5.386;2022-10-22T07:18:21;17.80;65.90
70807;DHT22;58882;52.170;5.386;2022-10-22T07:20:48;17.80;65.90
70807;DHT22;58882;52.170;5.386;2022-10-22T07:23:15;17.80;65.90
70807;DHT22;58882;52.170;5.386;2022-10-22T07:25:42;17.90;65.90
70807;DHT22;58882;52.170;5.386;2022-10-22T07:28:09;17.90;65.90
70807;DHT22;58882;52.170;5.386;2022-10-22T07:30:37;17.90;65.90
70807;DHT22;58882;52.170;5.386;2022-10-22T07:33:04;17.90;65.90
70807;DHT22;58882;52.170;5.386;2022-10-22T07:35:31;18.00;65.80
70807;DHT22;58882;52.170;5.386;2022-10-22T07:38:00;18.00;65.70
70807;DHT22;58882;52.170;5.386;2022-10-22T07:40:27;18.10;65.50
70807;DHT22;58882;52.170;5.386;2022-10-22T07:42:53;18.10;65.50
70807;DHT22;58882;52.170;5.386;2022-10-22T07:45:20;18.20;65.40
70807;DHT22;58882;52.170;5.386;2022-10-22T07:47:47;18.20;65.40
70807;DHT22;58882;52.170;5.386;2022-10-22T07:50:15;18.20;65.30
70807;DHT22;58882;52.170;5.386;2022-10-22T07:52:42;18.30;65.30
70807;DHT22;58882;52.170;5.386;2022-10-22T07:55:10;18.30;65.20
70807;DHT22;58882;52.170;5.386;2022-10-22T07:57:36;18.40;65.10
70807;DHT22;58882;52.170;5.386;2022-10-22T08:00:05;18.50;65.00
70807;DHT22;58882;52.170;5.386;2022-10-22T08:02:37;18.50;64.80
70807;DHT22;58882;52.170;5.386;2022-10-22T08:05:05;18.50;64.80
70807;DHT22;58882;52.170;5.386;2022-10-22T08:07:31;18.50;64.80
70807;DHT22;58882;52.170;5.386;2022-10-22T08:09:58;18.50;64.80
70807;DHT22;58882;52.170;5.386;2022-10-22T08:12:25;18.50;64.80
70807;DHT22;58882;52.170;5.386;2022-10-22T08:14:52;18.50;64.80
70807;DHT22;58882;52.170;5.386;2022-10-22T08:17:19;18.50;64.80
70807;DHT22;58882;52.170;5.386;2022-10-22T08:19:45;18.50;64.70
70807;DHT22;58882;52.170;5.386;2022-10-22T08:22:12;18.60;64.80
70807;DHT22;58882;52.170;5.386;2022-10-22T08:24:39;18.60;64.70
70807;DHT22;58882;52.170;5.386;2022-10-22T08:27:06;18.60;64.70
70807;DHT22;58882;52.170;5.386;2022-10-22T08:29:32;18.70;64.70
70807;DHT22;58882;52.170;5.386;2022-10-22T08:31:59;18.70;64.60
70807;DHT22;58882;52.170;5.386;2022-10-22T08:34:28;18.70;64.60
70807;DHT22;58882;52.170;5.386;2022-10-22T08:36:55;18.70;64.60
70807;DHT22;58882;52.170;5.386;2022-10-22T08:39:23;18.80;64.70
70807;DHT22;58882;52.170;5.386;2022-10-22T08:50:22;18.80;64.70
70807;DHT22;58882;52.170;5.386;2022-10-22T08:52:52;18.80;64.60
70807;DHT22;58882;52.170;5.386;2022-10-22T08:55:23;18.80;64.60
70807;DHT22;58882;52.170;5.386;2022-10-22T08:58:05;18.90;64.60
70807;DHT22;58882;52.170;5.386;2022-10-22T09:03:53;18.90;64.40
70807;DHT22;58882;52.170;5.386;2022-10-22T09:06:24;19.00;64.50
70807;DHT22;58882;52.170;5.386;2022-10-22T09:08:53;19.00;64.30
70807;DHT22;58882;52.170;5.386;2022-10-22T09:11:30;19.00;64.10
70807;DHT22;58882;52.170;5.386;2022-10-22T09:13:59;19.10;64.10
70807;DHT22;58882;52.170;5.386;2022-10-22T09:25:28;19.20;64.10
70807;DHT22;58882;52.170;5.386;2022-10-22T09:27:57;19.30;63.80
70807;DHT22;58882;52.170;5.386;2022-10-22T09:30:30;19.30;63.80
70807;DHT22;58882;52.170;5.386;2022-10-22T09:33:06;19.40;63.80
70807;DHT22;58882;52.170;5.386;2022-10-22T09:35:57;19.50;63.60
70807;DHT22;58882;52.170;5.386;2022-10-22T09:38:29;19.80;63.50
70807;DHT22;58882;52.170;5.386;2022-10-22T09:40:59;20.00;62.90
70807;DHT22;58882;52.170;5.386;2022-10-22T09:43:26;20.20;62.20
70807;DHT22;58882;52.170;5.386;2022-10-22T09:45:58;20.30;62.50
70807;DHT22;58882;52.170;5.386;2022-10-22T09:48:36;20.30;61.30
70807;DHT22;58882;52.170;5.386;2022-10-22T09:51:45;20.40;61.10
70807;DHT22;58882;52.170;5.386;2022-10-22T09:59:46;20.20;61.30
70807;DHT22;58882;52.170;5.386;2022-10-22T10:02:14;20.30;61.50
70807;DHT22;58882;52.170;5.386;2022-10-22T10:05:02;20.40;61.50
70807;DHT22;58882;52.170;5.386;2022-10-22T10:07:30;20.50;60.90
70807;DHT22;58882;52.170;5.386;2022-10-22T10:09:57;20.60;60.50
70807;DHT22;58882;52.170;5.386;2022-10-22T10:12:41;20.60;60.30
70807;DHT22;58882;52.170;5.386;2022-10-22T10:15:37;20.60;60.40
70807;DHT22;58882;52.170;5.386;2022-10-22T10:24:21;21.00;60.00
70807;DHT22;58882;52.170;5.386;2022-10-22T10:27:00;21.20;59.20
70807;DHT22;58882;52.170;5.386;2022-10-22T10:37:29;21.60;57.20
70807;DHT22;58882;52.170;5.386;2022-10-22T10:42:50;21.60;57.50
70807;DHT22;58882;52.170;5.386;2022-10-22T10:45:31;21.50;57.30
70807;DHT22;58882;52.170;5.386;2022-10-22T11:01:59;21.60;56.30
70807;DHT22;58882;52.170;5.386;2022-10-22T11:04:51;21.60;56.10
70807;DHT22;58882;52.170;5.386;2022-10-22T11:07:27;21.60;55.90
70807;DHT22;58882;52.170;5.386;2022-10-22T11:10:12;21.60;56.10
70807;DHT22;58882;52.170;5.386;2022-10-22T11:12:44;21.60;56.00
70807;DHT22;58882;52.170;5.386;2022-10-22T11:15:30;21.60;55.90
70807;DHT22;58882;52.170;5.386;2022-10-22T11:20:52;21.60;55.80
70807;DHT22;58882;52.170;5.386;2022-10-22T11:23:37;21.60;55.60
70807;DHT22;58882;52.170;5.386;2022-10-22T11:26:13;21.60;55.60
70807;DHT22;58882;52.170;5.386;2022-10-22T11:28:49;21.60;55.50
70807;DHT22;58882;52.170;5.386;2022-10-22T11:31:17;21.70;55.50
70807;DHT22;58882;52.170;5.386;2022-10-22T11:33:56;21.70;55.40
70807;DHT22;58882;52.170;5.386;2022-10-22T11:36:41;21.80;55.30
70807;DHT22;58882;52.170;5.386;2022-10-22T11:39:43;21.80;54.90
70807;DHT22;58882;52.170;5.386;2022-10-22T11:42:22;21.90;54.40
70807;DHT22;58882;52.170;5.386;2022-10-22T11:44:59;21.90;54.10
70807;DHT22;58882;52.170;5.386;2022-10-22T11:47:41;21.90;53.90
70807;DHT22;58882;52.170;5.386;2022-10-22T11:50:21;21.90;53.70
70807;DHT22;58882;52.170;5.386;2022-10-22T11:53:03;21.90;53.50
70807;DHT22;58882;52.170;5.386;2022-10-22T11:55:43;21.80;53.20
70807;DHT22;58882;52.170;5.386;2022-10-22T11:58:31;21.80;52.90
70807;DHT22;58882;52.170;5.386;2022-10-22T12:11:28;22.00;52.60
70807;DHT22;58882;52.170;5.386;2022-10-22T12:14:19;22.10;52.40
70807;DHT22;58882;52.170;5.386;2022-10-22T12:16:55;22.10;52.20
70807;DHT22;58882;52.170;5.386;2022-10-22T12:19:45;22.20;52.10
70807;DHT22;58882;52.170;5.386;2022-10-22T12:22:17;22.20;51.90
70807;DHT22;58882;52.170;5.386;2022-10-22T12:24:48;22.20;51.60
70807;DHT22;58882;52.170;5.386;2022-10-22T12:27:23;22.20;51.70
70807;DHT22;58882;52.170;5.386;2022-10-22T12:29:58;22.20;51.40
70807;DHT22;58882;52.170;5.386;2022-10-22T12:32:37;22.20;51.30
70807;DHT22;58882;52.170;5.386;2022-10-22T12:35:06;22.20;51.40
70807;DHT22;58882;52.170;5.386;2022-10-22T12:37:36;22.20;51.70
70807;DHT22;58882;52.170;5.386;2022-10-22T12:42:58;22.10;52.20
70807;DHT22;58882;52.170;5.386;2022-10-22T12:45:28;22.20;52.40
70807;DHT22;58882;52.170;5.386;2022-10-22T12:47:57;22.20;52.30
70807;DHT22;58882;52.170;5.386;2022-10-22T12:50:32;22.20;52.20
70807;DHT22;58882;52.170;5.386;2022-10-22T12:52:59;22.30;52.20
70807;DHT22;58882;52.170;5.386;2022-10-22T12:55:26;22.30;51.80
70807;DHT22;58882;52.170;5.386;2022-10-22T12:57:53;22.40;51.70
70807;DHT22;58882;52.170;5.386;2022-10-22T13:00:22;22.40;51.50
70807;DHT22;58882;52.170;5.386;2022-10-22T13:02:51;22.40;51.40
70807;DHT22;58882;52.170;5.386;2022-10-22T13:05:25;22.40;51.30
70807;DHT22;58882;52.170;5.386;2022-10-22T13:08:08;22.40;51.00
70807;DHT22;58882;52.170;5.386;2022-10-22T13:10:38;22.40;50.40
70807;DHT22;58882;52.170;5.386;2022-10-22T13:13:06;22.50;49.80
70807;DHT22;58882;52.170;5.386;2022-10-22T13:15:52;22.50;50.00
70807;DHT22;58882;52.170;5.386;2022-10-22T13:18:22;22.50;50.10
70807;DHT22;58882;52.170;5.386;2022-10-22T13:21:00;22.40;50.10
70807;DHT22;58882;52.170;5.386;2022-10-22T13:23:31;22.40;50.20
70807;DHT22;58882;52.170;5.386;2022-10-22T13:26:00;22.50;50.30
70807;DHT22;58882;52.170;5.386;2022-10-22T13:28:29;22.50;50.30
70807;DHT22;58882;52.170;5.386;2022-10-22T13:31:08;22.50;51.40
70807;DHT22;58882;52.170;5.386;2022-10-22T13:33:38;22.50;50.50
70807;DHT22;58882;52.170;5.386;2022-10-22T13:36:07;22.40;50.70
70807;DHT22;58882;52.170;5.386;2022-10-22T13:38:37;22.40;50.80
70807;DHT22;58882;52.170;5.386;2022-10-22T13:41:03;22.40;50.90
70807;DHT22;58882;52.170;5.386;2022-10-22T13:43:30;22.40;50.90
70807;DHT22;58882;52.170;5.386;2022-10-22T13:45:58;22.40;50.80
70807;DHT22;58882;52.170;5.386;2022-10-22T13:48:27;22.50;50.80
70807;DHT22;58882;52.170;5.386;2022-10-22T13:50:55;22.50;50.70
70807;DHT22;58882;52.170;5.386;2022-10-22T13:53:24;22.50;50.50
70807;DHT22;58882;52.170;5.386;2022-10-22T13:55:51;22.50;50.40
70807;DHT22;58882;52.170;5.386;2022-10-22T13:58:20;22.50;50.30
70807;DHT22;58882;52.170;5.386;2022-10-22T14:00:54;22.50;50.10
70807;DHT22;58882;52.170;5.386;2022-10-22T14:03:25;22.50;49.60
70807;DHT22;58882;52.170;5.386;2022-10-22T14:05:53;22.50;49.60
70807;DHT22;58882;52.170;5.386;2022-10-22T14:08:22;22.50;49.70
70807;DHT22;58882;52.170;5.386;2022-10-22T14:10:51;22.50;49.80
70807;DHT22;58882;52.170;5.386;2022-10-22T14:13:19;22.50;51.00
70807;DHT22;58882;52.170;5.386;2022-10-22T14:15:48;22.40;50.20
70807;DHT22;58882;52.170;5.386;2022-10-22T14:18:20;22.40;50.30
70807;DHT22;58882;52.170;5.386;2022-10-22T14:20:56;22.40;50.40
70807;DHT22;58882;52.170;5.386;2022-10-22T14:23:27;22.40;50.40
70807;DHT22;58882;52.170;5.386;2022-10-22T14:25:54;22.40;50.60
70807;DHT22;58882;52.170;5.386;2022-10-22T14:28:21;22.40;50.70
70807;DHT22;58882;52.170;5.386;2022-10-22T14:30:49;22.40;50.70
70807;DHT22;58882;52.170;5.386;2022-10-22T14:33:30;22.40;50.70
70807;DHT22;58882;52.170;5.386;2022-10-22T14:35:59;22.40;50.60
70807;DHT22;58882;52.170;5.386;2022-10-22T14:38:26;22.40;50.60
70807;DHT22;58882;52.170;5.386;2022-10-22T14:40:53;22.40;50.70
70807;DHT22;58882;52.170;5.386;2022-10-22T14:43:26;22.40;50.70
70807;DHT22;58882;52.170;5.386;2022-10-22T14:45:54;22.40;50.60
70807;DHT22;58882;52.170;5.386;2022-10-22T14:48:20;22.40;50.60
70807;DHT22;58882;52.170;5.386;2022-10-22T14:50:47;22.40;50.60
70807;DHT22;58882;52.170;5.386;2022-10-22T14:53:14;22.40;50.60
70807;DHT22;58882;52.170;5.386;2022-10-22T14:55:43;22.40;50.60
70807;DHT22;58882;52.170;5.386;2022-10-22T14:58:10;22.40;50.60
70807;DHT22;58882;52.170;5.386;2022-10-22T15:00:40;22.40;50.60
70807;DHT22;58882;52.170;5.386;2022-10-22T15:03:07;22.40;50.70
70807;DHT22;58882;52.170;5.386;2022-10-22T15:05:35;22.40;50.80
70807;DHT22;58882;52.170;5.386;2022-10-22T15:08:02;22.40;50.90
70807;DHT22;58882;52.170;5.386;2022-10-22T15:10:28;22.40;50.90
70807;DHT22;58882;52.170;5.386;2022-10-22T15:12:55;22.40;51.00
70807;DHT22;58882;52.170;5.386;2022-10-22T15:15:22;22.40;50.90
70807;DHT22;58882;52.170;5.386;2022-10-22T15:17:51;22.40;50.90
70807;DHT22;58882;52.170;5.386;2022-10-22T15:20:17;22.40;51.00
70807;DHT22;58882;52.170;5.386;2022-10-22T15:22:44;22.40;51.00
70807;DHT22;58882;52.170;5.386;2022-10-22T15:25:12;22.40;51.00
70807;DHT22;58882;52.170;5.386;2022-10-22T15:27:39;22.30;51.10
70807;DHT22;58882;52.170;5.386;2022-10-22T15:30:06;22.40;51.10
70807;DHT22;58882;52.170;5.386;2022-10-22T15:32:33;22.30;51.00
70807;DHT22;58882;52.170;5.386;2022-10-22T15:35:00;22.30;51.10
70807;DHT22;58882;52.170;5.386;2022-10-22T15:37:27;22.30;51.00
70807;DHT22;58882;52.170;5.386;2022-10-22T15:39:54;22.20;50.80
70807;DHT22;58882;52.170;5.386;2022-10-22T15:42:20;22.20;50.90
70807;DHT22;58882;52.170;5.386;2022-10-22T15:44:48;22.20;50.80
70807;DHT22;58882;52.170;5.386;2022-10-22T15:47:22;22.20;50.80
70807;DHT22;58882;52.170;5.386;2022-10-22T15:49:50;22.10;50.90
70807;DHT22;58882;52.170;5.386;2022-10-22T15:52:17;22.10;51.00
70807;DHT22;58882;52.170;5.386;2022-10-22T15:54:44;22.10;51.10
70807;DHT22;58882;52.170;5.386;2022-10-22T15:57:11;22.00;52.10
70807;DHT22;58882;52.170;5.386;2022-10-22T15:59:38;22.00;51.30
70807;DHT22;58882;52.170;5.386;2022-10-22T16:02:04;22.00;51.30
70807;DHT22;58882;52.170;5.386;2022-10-22T16:04:32;22.00;52.40
70807;DHT22;58882;52.170;5.386;2022-10-22T16:06:59;21.90;51.50
70807;DHT22;58882;52.170;5.386;2022-10-22T16:09:26;21.90;51.50
70807;DHT22;58882;52.170;5.386;2022-10-22T16:11:54;21.90;51.60
70807;DHT22;58882;52.170;5.386;2022-10-22T16:14:21;21.90;51.60
70807;DHT22;58882;52.170;5.386;2022-10-22T16:16:51;21.80;51.70
70807;DHT22;58882;52.170;5.386;2022-10-22T16:19:20;21.80;51.80
70807;DHT22;58882;52.170;5.386;2022-10-22T16:21:49;21.70;52.00
70807;DHT22;58882;52.170;5.386;2022-10-22T16:24:17;21.70;52.00
70807;DHT22;58882;52.170;5.386;2022-10-22T16:26:43;21.70;52.20
70807;DHT22;58882;52.170;5.386;2022-10-22T16:29:10;21.60;52.30
70807;DHT22;58882;52.170;5.386;2022-10-22T16:31:39;21.50;52.30
70807;DHT22;58882;52.170;5.386;2022-10-22T16:34:06;21.50;52.40
70807;DHT22;58882;52.170;5.386;2022-10-22T16:36:33;21.50;52.60
70807;DHT22;58882;52.170;5.386;2022-10-22T16:39:02;21.40;52.70
70807;DHT22;58882;52.170;5.386;2022-10-22T16:41:30;21.40;52.80
70807;DHT22;58882;52.170;5.386;2022-10-22T16:44:05;21.40;53.00
70807;DHT22;58882;52.170;5.386;2022-10-22T16:46:34;21.30;53.10
70807;DHT22;58882;52.170;5.386;2022-10-22T16:49:04;21.20;53.20
70807;DHT22;58882;52.170;5.386;2022-10-22T16:51:31;21.20;53.30
70807;DHT22;58882;52.170;5.386;2022-10-22T16:53:58;21.20;53.50
70807;DHT22;58882;52.170;5.386;2022-10-22T16:56:25;21.10;53.60
70807;DHT22;58882;52.170;5.386;2022-10-22T16:58:54;21.10;53.80
70807;DHT22;58882;52.170;5.386;2022-10-22T17:01:23;21.00;53.90
70807;DHT22;58882;52.170;5.386;2022-10-22T17:03:58;21.00;54.10
70807;DHT22;58882;52.170;5.386;2022-10-22T17:06:25;20.90;54.10
70807;DHT22;58882;52.170;5.386;2022-10-22T17:08:52;20.90;54.30
70807;DHT22;58882;52.170;5.386;2022-10-22T17:11:21;20.90;54.40
70807;DHT22;58882;52.170;5.386;2022-10-22T17:13:50;20.90;54.50
70807;DHT22;58882;52.170;5.386;2022-10-22T17:16:20;20.80;54.60
70807;DHT22;58882;52.170;5.386;2022-10-22T17:18:47;20.80;54.50
70807;DHT22;58882;52.170;5.386;2022-10-22T17:21:15;20.80;54.70
70807;DHT22;58882;52.170;5.386;2022-10-22T17:23:42;20.80;54.80
70807;DHT22;58882;52.170;5.386;2022-10-22T17:26:16;20.70;54.80
70807;DHT22;58882;52.170;5.386;2022-10-22T17:28:43;20.70;54.80
70807;DHT22;58882;52.170;5.386;2022-10-22T17:31:16;20.70;54.80
70807;DHT22;58882;52.170;5.386;2022-10-22T17:33:44;20.70;54.90